createdAt,value
2018-11-29T00:00:37.318Z,93.70
2018-11-29T00:03:11.912Z,93.70
2018-11-29T00:05:46.313Z,93.80
2018-11-29T00:08:20.884Z,94.00
2018-11-29T00:10:55.229Z,94.30
2018-11-29T00:13:29.627Z,94.40
2018-11-29T00:16:04.062Z,94.40
2018-11-29T00:18:38.557Z,94.50
2018-11-29T00:21:12.928Z,94.40
2018-11-29T00:23:47.253Z,94.20
2018-11-29T00:26:21.761Z,94.20
2018-11-29T00:28:56.453Z,94.20
2018-11-29T00:31:31.104Z,94.20
2018-11-29T00:34:06.398Z,94.20
2018-11-29T00:36:40.948Z,94.10
2018-11-29T00:39:15.441Z,94.10
2018-11-29T00:41:49.865Z,94.10
2018-11-29T00:44:24.360Z,94.00
2018-11-29T00:46:58.769Z,93.90
2018-11-29T00:49:33.325Z,94.10
2018-11-29T00:52:07.631Z,94.20
2018-11-29T00:54:42.172Z,94.10
2018-11-29T00:57:16.621Z,94.10
2018-11-29T00:59:51.158Z,94.10
2018-11-29T01:02:25.535Z,94.10
2018-11-29T01:04:59.940Z,94.00
2018-11-29T01:07:34.442Z,93.80
2018-11-29T01:10:10.866Z,93.70
2018-11-29T01:12:45.989Z,93.70
2018-11-29T01:15:20.915Z,94.20
2018-11-29T01:17:55.548Z,93.90
2018-11-29T01:20:29.982Z,93.80
2018-11-29T01:23:04.353Z,93.80
2018-11-29T01:25:38.684Z,94.00
2018-11-29T01:28:12.987Z,94.10
2018-11-29T01:30:47.679Z,94.30
2018-11-29T01:33:22.170Z,94.40
2018-11-29T01:35:56.816Z,94.40
2018-11-29T01:38:31.434Z,94.60
2018-11-29T01:41:06.236Z,94.60
2018-11-29T01:43:41.017Z,94.50
2018-11-29T01:46:15.646Z,94.20
2018-11-29T01:48:50.124Z,94.20
2018-11-29T01:51:24.697Z,94.00
2018-11-29T01:53:59.273Z,93.90
2018-11-29T01:56:33.588Z,93.50
2018-11-29T01:59:07.973Z,93.60
2018-11-29T02:01:42.367Z,93.60
2018-11-29T02:04:16.946Z,93.70
2018-11-29T02:06:51.333Z,93.60
2018-11-29T02:09:25.702Z,93.50
2018-11-29T02:12:00.080Z,93.50
2018-11-29T02:14:34.482Z,93.50
2018-11-29T02:17:08.861Z,93.40
2018-11-29T02:19:43.297Z,93.30
2018-11-29T02:22:17.874Z,93.50
2018-11-29T02:24:52.416Z,93.40
2018-11-29T02:27:26.766Z,93.40
2018-11-29T02:30:01.157Z,93.40
2018-11-29T02:32:35.574Z,93.10
2018-11-29T02:35:09.897Z,93.20
2018-11-29T02:37:44.281Z,93.20
2018-11-29T02:40:18.977Z,93.10
2018-11-29T02:42:53.442Z,93.20
2018-11-29T02:45:27.949Z,93.10
2018-11-29T02:48:02.427Z,93.10
2018-11-29T02:50:36.727Z,93.10
2018-11-29T02:53:11.075Z,92.90
2018-11-29T02:55:45.682Z,92.90
2018-11-29T02:58:20.206Z,92.90
2018-11-29T03:00:54.609Z,92.80
2018-11-29T03:03:29.252Z,92.80
2018-11-29T03:06:03.544Z,92.60
2018-11-29T03:08:37.955Z,92.40
2018-11-29T03:11:12.286Z,92.50
2018-11-29T03:13:46.714Z,92.60
2018-11-29T03:16:21.195Z,92.50
2018-11-29T03:18:55.700Z,92.50
2018-11-29T03:21:30.207Z,92.70
2018-11-29T03:24:04.569Z,92.60
2018-11-29T03:26:38.888Z,92.40
2018-11-29T03:29:13.343Z,92.30
2018-11-29T03:31:47.810Z,92.40
2018-11-29T03:34:22.361Z,92.50
2018-11-29T03:36:56.813Z,92.40
2018-11-29T03:39:31.314Z,92.50
2018-11-29T03:42:06.156Z,92.20
2018-11-29T03:44:40.633Z,92.10
2018-11-29T03:47:15.151Z,92.10
2018-11-29T03:49:49.576Z,92.10
2018-11-29T03:52:23.914Z,92.20
2018-11-29T03:54:58.418Z,92.20
2018-11-29T03:57:33.033Z,92.10
2018-11-29T04:00:12.497Z,91.90
2018-11-29T04:02:47.753Z,92.00
2018-11-29T04:05:22.510Z,91.70
2018-11-29T04:07:57.079Z,92.10
2018-11-29T04:10:31.783Z,91.90
2018-11-29T04:13:06.420Z,92.10
2018-11-29T04:15:40.839Z,91.90
2018-11-29T04:18:15.346Z,91.90
2018-11-29T04:20:49.701Z,91.70
2018-11-29T04:23:24.210Z,91.80
2018-11-29T04:25:58.676Z,91.80
2018-11-29T04:28:33.144Z,92.00
2018-11-29T04:31:07.614Z,91.80
2018-11-29T04:33:42.038Z,92.00
2018-11-29T04:36:16.479Z,92.20
2018-11-29T04:38:50.835Z,92.30
2018-11-29T04:41:25.380Z,92.30
2018-11-29T04:43:59.774Z,92.40
2018-11-29T04:46:44.358Z,92.60
2018-11-29T04:49:18.855Z,92.50
2018-11-29T04:51:53.371Z,92.40
2018-11-29T04:54:27.790Z,92.80
2018-11-29T04:57:02.387Z,92.40
2018-11-29T04:59:36.759Z,92.20
2018-11-29T05:02:11.979Z,92.00
2018-11-29T05:04:45.868Z,92.00
2018-11-29T05:07:20.565Z,92.00
2018-11-29T05:09:54.891Z,92.00
2018-11-29T05:12:29.313Z,92.00
2018-11-29T05:15:03.840Z,91.90
2018-11-29T05:17:38.425Z,91.80
2018-11-29T05:20:13.023Z,91.60
2018-11-29T05:22:47.443Z,91.70
2018-11-29T05:25:21.785Z,91.80
2018-11-29T05:27:56.309Z,91.80
2018-11-29T05:30:30.581Z,91.90
2018-11-29T05:33:05.260Z,91.90
2018-11-29T05:35:39.772Z,91.90
2018-11-29T05:38:14.388Z,92.10
2018-11-29T05:40:48.953Z,92.10
2018-11-29T05:43:23.375Z,92.20
2018-11-29T05:45:57.803Z,92.10
2018-11-29T05:48:32.244Z,92.10
2018-11-29T05:51:06.808Z,92.00
2018-11-29T05:53:41.105Z,91.90
2018-11-29T05:56:15.638Z,91.80
2018-11-29T05:58:50.122Z,91.50
2018-11-29T06:01:28.784Z,91.70
2018-11-29T06:04:03.387Z,91.70
2018-11-29T06:06:37.740Z,91.90
2018-11-29T06:09:12.083Z,92.00
2018-11-29T06:11:46.413Z,91.90
2018-11-29T06:14:20.824Z,91.90
2018-11-29T06:16:55.365Z,91.90
2018-11-29T06:19:29.837Z,92.00
2018-11-29T06:22:04.234Z,91.90
2018-11-29T06:24:38.628Z,91.80
2018-11-29T06:27:13.084Z,91.70
2018-11-29T06:29:47.594Z,91.50
2018-11-29T06:32:21.873Z,91.30
2018-11-29T06:34:56.139Z,91.50
2018-11-29T06:37:30.495Z,91.50
2018-11-29T06:40:10.823Z,91.50
2018-11-29T06:42:45.305Z,91.70
2018-11-29T06:45:21.494Z,91.70
2018-11-29T06:47:56.025Z,91.60
2018-11-29T06:50:30.505Z,91.60
2018-11-29T06:53:09.677Z,91.80
2018-11-29T06:55:44.235Z,92.00
2018-11-29T06:58:18.535Z,92.10
2018-11-29T07:00:52.931Z,92.20
2018-11-29T07:03:28.929Z,92.20
2018-11-29T07:06:02.025Z,92.20
2018-11-29T07:08:36.670Z,92.20
2018-11-29T07:11:11.114Z,92.30
2018-11-29T07:13:45.819Z,92.40
2018-11-29T07:16:20.275Z,92.30
2018-11-29T07:18:54.819Z,92.40
2018-11-29T07:21:40.667Z,92.40
2018-11-29T07:24:15.094Z,92.40
2018-11-29T07:26:49.520Z,92.50
2018-11-29T07:29:24.099Z,92.60
2018-11-29T07:31:58.490Z,92.80
2018-11-29T07:34:32.939Z,93.00
2018-11-29T07:37:07.468Z,92.70
2018-11-29T07:39:41.785Z,92.80
2018-11-29T07:42:16.199Z,92.90
2018-11-29T07:44:50.534Z,93.00
2018-11-29T07:47:25.274Z,93.00
2018-11-29T07:49:59.971Z,92.80
2018-11-29T07:52:34.287Z,92.90
2018-11-29T07:55:13.593Z,92.90
2018-11-29T07:57:50.357Z,93.00
2018-11-29T08:00:24.725Z,92.90
2018-11-29T08:02:59.115Z,92.90
2018-11-29T08:05:33.757Z,92.90
2018-11-29T08:08:08.232Z,93.00
2018-11-29T08:10:42.771Z,92.70
2018-11-29T08:13:17.205Z,92.60
2018-11-29T08:15:51.598Z,92.70
2018-11-29T08:18:26.012Z,92.80
2018-11-29T08:21:00.397Z,92.70
2018-11-29T08:23:34.761Z,92.70
2018-11-29T08:26:09.321Z,92.90
2018-11-29T08:28:43.883Z,92.50
2018-11-29T08:31:18.492Z,92.40
2018-11-29T08:33:52.880Z,92.30
2018-11-29T08:36:27.429Z,92.00
2018-11-29T08:39:02.035Z,92.20
2018-11-29T08:41:36.664Z,92.20
2018-11-29T08:44:11.337Z,92.20
2018-11-29T08:46:45.730Z,92.20
2018-11-29T08:49:21.240Z,92.20
2018-11-29T08:51:54.554Z,92.20
2018-11-29T08:54:28.987Z,92.40
2018-11-29T08:57:03.280Z,92.50
2018-11-29T08:59:37.859Z,92.60
2018-11-29T09:02:12.328Z,92.60
2018-11-29T09:04:46.865Z,92.60
2018-11-29T09:07:21.286Z,92.80
2018-11-29T09:09:55.648Z,92.90
2018-11-29T09:12:29.992Z,92.90
2018-11-29T09:15:04.970Z,92.80
2018-11-29T09:17:39.494Z,92.80
2018-11-29T09:20:21.556Z,92.60
2018-11-29T09:22:56.015Z,92.50
2018-11-29T09:25:30.411Z,92.40
2018-11-29T09:28:05.580Z,92.40
2018-11-29T09:30:39.907Z,92.30
2018-11-29T09:33:14.550Z,92.40
2018-11-29T09:35:49.043Z,92.50
2018-11-29T09:38:23.487Z,92.60
2018-11-29T09:40:57.802Z,92.30
2018-11-29T09:43:32.349Z,92.30
2018-11-29T09:46:06.825Z,92.10
2018-11-29T09:48:41.246Z,92.40
2018-11-29T09:51:15.762Z,92.50
2018-11-29T09:53:50.180Z,92.80
2018-11-29T09:56:24.711Z,93.00
2018-11-29T09:58:59.168Z,93.30
2018-11-29T10:01:33.706Z,93.50
2018-11-29T10:04:08.164Z,93.50
2018-11-29T10:06:42.465Z,93.60
2018-11-29T10:09:16.835Z,93.20
2018-11-29T10:11:51.426Z,93.30
2018-11-29T10:14:25.946Z,93.40
2018-11-29T10:17:00.328Z,93.40
2018-11-29T10:19:34.749Z,93.70
2018-11-29T10:22:09.330Z,93.80
2018-11-29T10:24:43.959Z,93.80
2018-11-29T10:27:18.340Z,93.40
2018-11-29T10:29:52.668Z,92.80
2018-11-29T10:32:27.319Z,92.70
2018-11-29T10:35:01.885Z,92.40
2018-11-29T10:37:36.286Z,92.20
2018-11-29T10:40:11.129Z,91.90
2018-11-29T10:42:45.632Z,91.60
2018-11-29T10:45:20.519Z,91.30
2018-11-29T10:47:55.566Z,91.30
2018-11-29T10:50:30.055Z,91.10
2018-11-29T10:53:04.497Z,91.30
2018-11-29T10:55:39.076Z,91.00
2018-11-29T10:58:13.393Z,91.00
2018-11-29T11:00:53.168Z,90.50
2018-11-29T11:03:27.502Z,90.20
2018-11-29T11:06:01.821Z,90.00
2018-11-29T11:08:36.295Z,90.00
2018-11-29T11:11:10.918Z,90.00
2018-11-29T11:13:45.360Z,90.00
2018-11-29T11:16:19.819Z,90.10
2018-11-29T11:18:54.321Z,90.20
2018-11-29T11:21:28.783Z,90.30
2018-11-29T11:24:03.153Z,90.30
2018-11-29T11:26:37.700Z,89.10
2018-11-29T11:29:12.056Z,89.10
2018-11-29T11:31:46.706Z,89.10
2018-11-29T11:34:21.383Z,88.30
2018-11-29T11:36:55.690Z,88.70
2018-11-29T11:39:30.261Z,88.20
2018-11-29T11:42:04.867Z,89.10
2018-11-29T11:44:39.367Z,89.40
2018-11-29T11:47:14.043Z,89.70
2018-11-29T11:49:48.718Z,88.90
2018-11-29T11:52:23.130Z,88.00
2018-11-29T11:54:57.485Z,88.00
2018-11-29T11:57:31.963Z,86.70
2018-11-29T12:00:11.129Z,87.30
2018-11-29T12:02:46.408Z,87.20
2018-11-29T12:05:20.968Z,87.60
2018-11-29T12:07:55.520Z,87.90
2018-11-29T12:10:29.966Z,86.60
2018-11-29T12:13:04.367Z,86.30
2018-11-29T12:15:38.868Z,85.60
2018-11-29T12:18:13.449Z,85.60
2018-11-29T12:20:47.831Z,85.20
2018-11-29T12:23:22.362Z,85.40
2018-11-29T12:25:56.908Z,85.80
2018-11-29T12:28:31.329Z,85.10
2018-11-29T12:31:06.122Z,86.40
2018-11-29T12:33:40.623Z,86.70
2018-11-29T12:36:15.100Z,87.70
2018-11-29T12:38:49.653Z,89.00
2018-11-29T12:41:23.962Z,90.10
2018-11-29T12:43:58.275Z,90.30
2018-11-29T12:46:32.560Z,90.60
2018-11-29T12:49:07.064Z,90.90
2018-11-29T12:51:41.398Z,91.10
2018-11-29T12:54:15.812Z,91.60
2018-11-29T12:56:50.264Z,91.60
2018-11-29T12:59:24.649Z,91.00
2018-11-29T13:01:59.045Z,91.00
2018-11-29T13:04:33.403Z,90.70
2018-11-29T13:07:07.984Z,90.80
2018-11-29T13:09:42.305Z,91.00
2018-11-29T13:12:16.652Z,91.20
2018-11-29T13:14:53.834Z,91.00
2018-11-29T13:17:28.204Z,90.90
2018-11-29T13:20:02.746Z,91.30
2018-11-29T13:22:37.304Z,91.20
2018-11-29T13:25:14.981Z,91.60
2018-11-29T13:27:49.523Z,91.60
2018-11-29T13:30:23.959Z,91.70
2018-11-29T13:32:58.457Z,91.50
2018-11-29T13:35:34.235Z,92.00
2018-11-29T13:38:10.461Z,92.10
2018-11-29T13:40:51.014Z,92.00
2018-11-29T13:43:24.420Z,91.90
2018-11-29T13:45:58.974Z,92.20
2018-11-29T13:48:33.453Z,92.40
2018-11-29T13:51:07.870Z,92.60
2018-11-29T13:53:42.387Z,92.60
2018-11-29T13:56:16.743Z,92.50
2018-11-29T13:58:51.286Z,92.40
2018-11-29T14:01:25.989Z,92.40
2018-11-29T14:04:00.514Z,92.30
2018-11-29T14:06:35.085Z,92.20
2018-11-29T14:09:10.003Z,92.10
2018-11-29T14:11:44.343Z,91.90
2018-11-29T14:14:18.924Z,91.80
2018-11-29T14:16:53.437Z,91.80
2018-11-29T14:19:27.812Z,91.60
2018-11-29T14:22:02.256Z,91.50
2018-11-29T14:24:36.663Z,91.40
2018-11-29T14:27:11.218Z,91.80
2018-11-29T14:29:45.570Z,92.20
2018-11-29T14:32:20.096Z,92.20
2018-11-29T14:34:54.616Z,92.40
2018-11-29T14:37:29.206Z,92.40
2018-11-29T14:40:03.866Z,92.70
2018-11-29T14:42:38.290Z,92.50
2018-11-29T14:45:14.625Z,92.30
2018-11-29T14:47:49.121Z,92.60
2018-11-29T14:50:31.257Z,92.50
2018-11-29T14:53:07.027Z,92.60
2018-11-29T14:55:41.539Z,92.60
2018-11-29T14:58:19.677Z,92.50
2018-11-29T15:00:50.376Z,92.40
2018-11-29T15:03:24.879Z,92.40
2018-11-29T15:05:59.240Z,92.30
2018-11-29T15:08:33.739Z,92.30
2018-11-29T15:11:08.180Z,92.20
2018-11-29T15:13:42.530Z,92.20
2018-11-29T15:16:16.876Z,92.20
2018-11-29T15:18:51.305Z,92.60
2018-11-29T15:21:25.656Z,92.20
2018-11-29T15:24:00.139Z,92.10
2018-11-29T15:26:34.408Z,92.30
2018-11-29T15:29:08.719Z,92.70
2018-11-29T15:31:43.257Z,92.90
2018-11-29T15:34:17.539Z,93.00
2018-11-29T15:36:51.867Z,92.90
2018-11-29T15:39:26.511Z,92.90
2018-11-29T15:42:01.004Z,92.90
2018-11-29T15:44:35.543Z,93.00
2018-11-29T15:47:09.827Z,92.70
2018-11-29T15:49:44.119Z,92.70
2018-11-29T15:52:18.502Z,92.50
2018-11-29T15:54:52.836Z,92.40
2018-11-29T15:57:27.170Z,92.50
2018-11-29T16:00:01.587Z,92.60
2018-11-29T16:02:36.036Z,92.80
2018-11-29T16:05:10.632Z,92.80
2018-11-29T16:07:45.655Z,92.80
2018-11-29T16:10:22.412Z,92.90
2018-11-29T16:12:57.149Z,92.90
2018-11-29T16:15:31.863Z,93.10
2018-11-29T16:18:06.677Z,93.20
2018-11-29T16:20:41.376Z,93.20
2018-11-29T16:23:16.096Z,93.20
2018-11-29T16:25:51.251Z,93.40
2018-11-29T16:28:26.121Z,93.80
2018-11-29T16:31:01.683Z,94.00
2018-11-29T16:33:37.957Z,94.10
2018-11-29T16:36:12.644Z,94.10
2018-11-29T16:38:47.496Z,94.10
2018-11-29T16:41:22.396Z,94.00
2018-11-29T16:43:57.101Z,93.90
2018-11-29T16:46:31.846Z,94.00
2018-11-29T16:49:06.809Z,93.80
2018-11-29T16:51:41.509Z,93.80
2018-11-29T16:54:16.294Z,94.10
2018-11-29T16:56:51.007Z,93.50
2018-11-29T16:59:25.809Z,93.60
2018-11-29T17:02:00.461Z,93.40
2018-11-29T17:04:35.173Z,93.50
2018-11-29T17:07:09.761Z,93.50
2018-11-29T17:09:44.565Z,93.60
2018-11-29T17:12:22.122Z,93.70
2018-11-29T17:14:56.912Z,93.90
2018-11-29T17:17:31.689Z,93.80
2018-11-29T17:20:11.720Z,93.70
2018-11-29T17:22:47.626Z,93.60
2018-11-29T17:25:22.359Z,93.80
2018-11-29T17:27:56.983Z,93.70
2018-11-29T17:30:31.467Z,93.70
2018-11-29T17:33:07.017Z,93.80
2018-11-29T17:35:41.402Z,93.70
2018-11-29T17:38:15.870Z,93.80
2018-11-29T17:40:50.507Z,93.90
2018-11-29T17:43:24.912Z,93.90
2018-11-29T17:45:59.282Z,93.80
2018-11-29T17:48:33.655Z,94.00
2018-11-29T17:51:08.155Z,93.90
2018-11-29T17:53:42.560Z,93.90
2018-11-29T17:56:17.105Z,93.80
2018-11-29T17:58:51.637Z,93.80
2018-11-29T18:01:26.153Z,93.90
2018-11-29T18:04:00.720Z,93.60
2018-11-29T18:06:35.247Z,93.70
2018-11-29T18:09:11.628Z,93.60
2018-11-29T18:11:45.913Z,93.70
2018-11-29T18:14:20.430Z,93.70
2018-11-29T18:16:54.810Z,93.70
2018-11-29T18:19:29.366Z,93.90
2018-11-29T18:22:03.693Z,93.80
2018-11-29T18:24:38.299Z,93.90
2018-11-29T18:27:12.831Z,93.90
2018-11-29T18:29:47.609Z,93.90
2018-11-29T18:32:21.946Z,94.00
2018-11-29T18:34:57.140Z,94.10
2018-11-29T18:37:31.451Z,94.10
2018-11-29T18:40:10.853Z,94.10
2018-11-29T18:42:46.692Z,94.00
2018-11-29T18:45:20.714Z,93.90
2018-11-29T18:47:55.424Z,93.90
2018-11-29T18:50:30.020Z,94.00
2018-11-29T18:53:04.443Z,94.10
2018-11-29T18:55:39.101Z,93.90
2018-11-29T18:58:13.582Z,94.00
2018-11-29T19:00:48.113Z,94.20
2018-11-29T19:03:22.640Z,94.40
2018-11-29T19:05:57.169Z,94.30
2018-11-29T19:08:31.521Z,94.30
2018-11-29T19:11:06.158Z,94.20
2018-11-29T19:13:40.538Z,94.20
2018-11-29T19:16:15.014Z,94.20
2018-11-29T19:18:49.423Z,94.10
2018-11-29T19:21:24.032Z,94.60
2018-11-29T19:23:58.394Z,94.10
2018-11-29T19:26:32.900Z,94.10
2018-11-29T19:29:07.566Z,94.00
2018-11-29T19:31:42.060Z,94.00
2018-11-29T19:36:48.079Z,94.10
2018-11-29T19:39:22.421Z,94.20
2018-11-29T19:41:56.862Z,94.10
2018-11-29T19:44:31.310Z,94.20
2018-11-29T19:47:05.636Z,94.30
2018-11-29T19:49:40.045Z,94.20
2018-11-29T19:52:14.545Z,94.60
2018-11-29T19:54:49.006Z,94.20
2018-11-29T19:57:23.523Z,94.20
2018-11-29T19:59:58.354Z,94.10
2018-11-29T20:02:32.870Z,94.10
2018-11-29T20:05:09.084Z,94.10
2018-11-29T20:07:43.728Z,94.00
2018-11-29T20:10:18.820Z,94.00
2018-11-29T20:12:59.616Z,94.10
2018-11-29T20:15:35.425Z,94.30
2018-11-29T20:18:11.083Z,94.40
2018-11-29T20:20:45.470Z,94.60
2018-11-29T20:23:19.908Z,94.70
2018-11-29T20:25:54.417Z,94.60
2018-11-29T20:28:28.848Z,94.60
2018-11-29T20:31:03.441Z,94.60
2018-11-29T20:33:37.849Z,94.60
2018-11-29T20:36:12.317Z,94.50
2018-11-29T20:38:46.802Z,94.40
2018-11-29T20:41:21.475Z,94.40
2018-11-29T20:43:55.976Z,94.40
2018-11-29T20:46:30.323Z,94.40
2018-11-29T20:49:04.918Z,94.30
2018-11-29T20:51:39.439Z,94.30
2018-11-29T20:54:13.958Z,94.30
2018-11-29T20:56:48.370Z,94.40
2018-11-29T20:59:22.905Z,94.40
2018-11-29T21:01:57.248Z,94.30
2018-11-29T21:04:31.639Z,94.30
2018-11-29T21:07:06.364Z,94.30
2018-11-29T21:09:40.743Z,94.20
2018-11-29T21:12:15.114Z,94.20
2018-11-29T21:14:49.632Z,94.10
2018-11-29T21:17:23.996Z,94.10
2018-11-29T21:19:58.414Z,94.30
2018-11-29T21:22:32.946Z,94.40
2018-11-29T21:25:12.090Z,94.40
2018-11-29T21:27:46.403Z,94.50
2018-11-29T21:30:20.722Z,94.40
2018-11-29T21:32:55.098Z,94.40
2018-11-29T21:35:29.593Z,94.40
2018-11-29T21:38:11.810Z,94.40
2018-11-29T21:40:49.011Z,94.30
2018-11-29T21:43:23.288Z,94.20
2018-11-29T21:45:57.680Z,94.30
2018-11-29T21:48:32.028Z,94.30
2018-11-29T21:51:06.563Z,94.30
2018-11-29T21:53:41.081Z,94.20
2018-11-29T21:56:15.545Z,94.10
2018-11-29T21:58:50.329Z,94.30
2018-11-29T22:01:24.850Z,94.10
2018-11-29T22:03:59.281Z,93.90
2018-11-29T22:06:33.568Z,94.10
2018-11-29T22:09:08.028Z,94.00
2018-11-29T22:11:42.418Z,94.30
2018-11-29T22:14:16.807Z,94.50
2018-11-29T22:16:51.366Z,94.70
2018-11-29T22:19:25.870Z,94.70
2018-11-29T22:22:00.347Z,94.70
2018-11-29T22:24:34.860Z,94.70
2018-11-29T22:27:09.155Z,94.60
2018-11-29T22:29:43.516Z,94.60
2018-11-29T22:32:17.993Z,94.60
2018-11-29T22:34:52.615Z,94.60
2018-11-29T22:37:27.258Z,94.60
2018-11-29T22:40:01.660Z,94.50
2018-11-29T22:42:36.015Z,94.60
2018-11-29T22:45:10.551Z,94.60
2018-11-29T22:47:44.950Z,94.60
2018-11-29T22:50:19.444Z,94.60
2018-11-29T22:52:53.985Z,94.60
2018-11-29T22:55:28.456Z,94.50
2018-11-29T22:58:02.823Z,94.40
2018-11-29T23:00:39.237Z,94.40
2018-11-29T23:03:13.698Z,94.40
2018-11-29T23:05:48.227Z,94.40
2018-11-29T23:08:22.623Z,94.40
2018-11-29T23:10:57.119Z,94.40
2018-11-29T23:13:31.733Z,94.50
2018-11-29T23:16:06.618Z,94.50
2018-11-29T23:18:40.936Z,94.30
2018-11-29T23:21:15.370Z,94.40
2018-11-29T23:23:49.788Z,94.80
2018-11-29T23:26:24.372Z,94.40
2018-11-29T23:28:58.996Z,94.30
2018-11-29T23:31:33.484Z,94.30
2018-11-29T23:34:08.139Z,94.20
2018-11-29T23:36:42.856Z,94.30
2018-11-29T23:39:17.321Z,94.10
2018-11-29T23:41:51.755Z,94.00
2018-11-29T23:44:26.361Z,94.10
2018-11-29T23:47:00.910Z,94.30
2018-11-29T23:49:35.440Z,94.50
2018-11-29T23:52:09.839Z,94.70
2018-11-29T23:54:44.354Z,94.70
2018-11-29T23:57:18.949Z,94.70
2018-11-29T23:59:53.605Z,94.70
